createdAt,value
2023-02-28T00:01:28.292Z,66.09
2023-02-28T00:04:01.540Z,65.70
2023-02-28T00:06:34.526Z,65.82
2023-02-28T00:09:07.500Z,65.61
2023-02-28T00:11:40.338Z,65.57
2023-02-28T00:14:14.634Z,65.70
2023-02-28T00:16:47.659Z,65.50
2023-02-28T00:19:20.639Z,65.86
2023-02-28T00:21:53.553Z,65.98
2023-02-28T00:24:26.463Z,65.70
2023-02-28T00:26:59.362Z,65.77
2023-02-28T00:29:33.724Z,65.70
2023-02-28T00:32:07.838Z,66.02
2023-02-28T00:34:40.964Z,65.83
2023-02-28T00:37:14.345Z,65.58
2023-02-28T00:39:47.608Z,65.76
2023-02-28T00:42:20.604Z,65.87
2023-02-28T00:44:55.238Z,65.98
2023-02-28T00:47:28.423Z,65.61
2023-02-28T00:50:01.880Z,65.95
2023-02-28T00:52:34.762Z,65.86
2023-02-28T00:55:08.131Z,65.75
2023-02-28T00:57:41.148Z,65.75
2023-02-28T01:00:17.162Z,65.51
2023-02-28T01:02:50.149Z,66.28
2023-02-28T01:05:23.144Z,65.68
2023-02-28T01:07:56.008Z,65.35
2023-02-28T01:10:32.488Z,65.42
2023-02-28T01:13:05.502Z,65.38
2023-02-28T01:15:52.316Z,65.29
2023-02-28T01:18:25.605Z,65.86
2023-02-28T01:20:58.493Z,65.80
2023-02-28T01:23:31.408Z,65.74
2023-02-28T01:26:06.996Z,65.36
2023-02-28T01:28:40.190Z,65.85
2023-02-28T01:31:14.852Z,65.55
2023-02-28T01:33:48.315Z,65.88
2023-02-28T01:36:23.597Z,65.67
2023-02-28T01:38:56.534Z,65.49
2023-02-28T01:41:32.531Z,65.57
2023-02-28T01:44:07.935Z,65.63
2023-02-28T01:46:42.373Z,65.68
2023-02-28T01:49:19.045Z,65.74
2023-02-28T01:51:56.297Z,65.72
2023-02-28T01:54:33.623Z,65.31
2023-02-28T01:57:11.820Z,65.40
2023-02-28T01:59:49.728Z,65.05
2023-02-28T02:02:26.379Z,65.34
2023-02-28T02:05:03.184Z,65.26
2023-02-28T02:07:39.070Z,65.23
2023-02-28T02:10:16.017Z,65.25
2023-02-28T02:13:06.900Z,65.41
2023-02-28T02:15:47.260Z,65.26
2023-02-28T02:18:33.835Z,65.10
2023-02-28T02:21:31.875Z,64.77
2023-02-28T02:24:37.877Z,64.68
2023-02-28T02:27:22.520Z,65.13
2023-02-28T02:30:30.240Z,65.18
2023-02-28T02:33:38.395Z,65.10
2023-02-28T02:36:18.345Z,64.98
2023-02-28T02:38:55.489Z,65.35
2023-02-28T02:41:37.496Z,65.21
2023-02-28T02:44:20.693Z,65.42
2023-02-28T02:46:56.929Z,65.63
2023-02-28T02:49:33.527Z,65.65
2023-02-28T02:52:13.011Z,65.13
2023-02-28T02:54:49.276Z,65.50
2023-02-28T02:57:27.848Z,65.67
2023-02-28T03:00:02.741Z,65.60
2023-02-28T03:02:38.734Z,65.51
2023-02-28T03:05:21.279Z,65.27
2023-02-28T03:07:55.755Z,65.63
2023-02-28T03:10:36.012Z,65.17
2023-02-28T03:13:34.003Z,65.03
2023-02-28T03:16:26.128Z,65.54
2023-02-28T03:19:11.403Z,65.19
2023-02-28T03:21:52.399Z,65.07
2023-02-28T03:24:34.565Z,64.81
2023-02-28T03:27:11.862Z,65.07
2023-02-28T03:29:50.162Z,64.90
2023-02-28T03:32:28.964Z,64.47
2023-02-28T03:35:08.981Z,64.87
2023-02-28T03:37:46.001Z,64.62
2023-02-28T03:40:25.384Z,65.11
2023-02-28T03:43:03.542Z,65.04
2023-02-28T03:45:39.174Z,65.08
2023-02-28T03:48:15.959Z,65.16
2023-02-28T03:50:55.301Z,65.13
2023-02-28T03:53:32.825Z,65.08
2023-02-28T03:56:13.393Z,65.05
2023-02-28T03:58:53.710Z,64.90
2023-02-28T04:01:31.284Z,65.52
2023-02-28T04:04:05.871Z,64.39
2023-02-28T04:06:39.220Z,64.95
2023-02-28T04:09:14.253Z,65.01
2023-02-28T04:11:53.615Z,65.25
2023-02-28T04:14:26.821Z,65.29
2023-02-28T04:16:59.820Z,64.87
2023-02-28T04:19:33.047Z,65.02
2023-02-28T04:22:05.945Z,64.59
2023-02-28T04:24:42.391Z,64.86
2023-02-28T04:27:17.202Z,64.92
2023-02-28T04:29:50.068Z,65.11
2023-02-28T04:32:22.967Z,64.88
2023-02-28T04:34:56.885Z,65.30
2023-02-28T04:37:29.920Z,65.36
2023-02-28T04:40:03.627Z,65.57
2023-02-28T04:42:38.063Z,65.60
2023-02-28T04:45:12.070Z,65.77
2023-02-28T04:47:45.167Z,65.64
2023-02-28T04:50:18.343Z,65.84
2023-02-28T04:52:51.308Z,65.76
2023-02-28T04:55:24.253Z,65.75
2023-02-28T04:57:58.901Z,65.82
2023-02-28T05:00:31.909Z,65.68
2023-02-28T05:03:05.087Z,65.43
2023-02-28T05:05:38.112Z,65.51
2023-02-28T05:08:11.541Z,65.41
2023-02-28T05:10:44.622Z,65.77
2023-02-28T05:13:19.099Z,65.81
2023-02-28T05:15:52.173Z,65.62
2023-02-28T05:18:25.224Z,65.60
2023-02-28T05:20:58.183Z,65.36
2023-02-28T05:23:31.592Z,66.02
2023-02-28T05:26:04.561Z,65.81
2023-02-28T05:28:38.950Z,65.51
2023-02-28T05:31:13.398Z,65.38
2023-02-28T05:33:46.493Z,65.62
2023-02-28T05:36:19.632Z,65.29
2023-02-28T05:38:53.360Z,65.49
2023-02-28T05:41:27.276Z,65.53
2023-02-28T05:44:02.458Z,65.36
2023-02-28T05:46:37.204Z,65.21
2023-02-28T05:49:10.256Z,64.89
2023-02-28T05:51:43.547Z,65.00
2023-02-28T05:54:16.750Z,65.27
2023-02-28T05:56:49.815Z,64.77
2023-02-28T05:59:24.551Z,64.66
2023-02-28T06:01:57.744Z,64.70
2023-02-28T06:04:32.106Z,64.99
2023-02-28T06:07:05.324Z,64.87
2023-02-28T06:09:38.950Z,64.35
2023-02-28T06:12:12.764Z,64.66
2023-02-28T06:14:47.359Z,64.14
2023-02-28T06:17:20.282Z,64.93
2023-02-28T06:19:53.232Z,64.87
2023-02-28T06:22:26.443Z,65.15
2023-02-28T06:24:59.405Z,64.93
2023-02-28T06:27:32.765Z,64.65
2023-02-28T06:30:08.364Z,64.83
2023-02-28T06:32:41.372Z,64.90
2023-02-28T06:35:14.755Z,64.91
2023-02-28T06:37:48.254Z,64.95
2023-02-28T06:40:21.391Z,65.32
2023-02-28T06:42:54.511Z,65.07
2023-02-28T06:45:28.960Z,64.51
2023-02-28T06:48:01.876Z,64.99
2023-02-28T06:50:34.773Z,65.16
2023-02-28T06:53:07.726Z,64.94
2023-02-28T06:55:40.936Z,64.80
2023-02-28T06:58:19.037Z,65.05
2023-02-28T07:00:54.562Z,64.53
2023-02-28T07:03:27.845Z,64.70
2023-02-28T07:06:01.140Z,64.82
2023-02-28T07:08:34.162Z,65.24
2023-02-28T07:11:07.100Z,64.52
2023-02-28T07:13:40.415Z,64.54
2023-02-28T07:16:16.888Z,64.54
2023-02-28T07:18:50.135Z,64.23
2023-02-28T07:21:23.350Z,64.76
2023-02-28T07:23:56.334Z,63.75
2023-02-28T07:26:29.350Z,64.53
2023-02-28T07:29:03.204Z,64.40
2023-02-28T07:31:37.632Z,64.21
2023-02-28T07:34:10.508Z,64.58
2023-02-28T07:36:43.426Z,64.95
2023-02-28T07:39:16.445Z,64.57
2023-02-28T07:41:49.652Z,64.69
2023-02-28T07:44:22.701Z,64.19
2023-02-28T07:46:57.367Z,64.35
2023-02-28T07:49:30.360Z,64.79
2023-02-28T07:52:03.581Z,65.40
2023-02-28T07:54:36.730Z,64.51
2023-02-28T07:57:09.645Z,65.10
2023-02-28T07:59:43.858Z,64.67
2023-02-28T08:02:20.674Z,63.87
2023-02-28T08:04:53.726Z,63.78
2023-02-28T08:07:26.710Z,64.32
2023-02-28T08:09:59.711Z,64.26
2023-02-28T08:12:32.953Z,64.57
2023-02-28T08:15:06.653Z,64.79
2023-02-28T08:17:41.082Z,64.84
2023-02-28T08:20:14.795Z,64.68
2023-02-28T08:22:47.705Z,64.79
2023-02-28T08:25:21.042Z,65.23
2023-02-28T08:27:54.195Z,65.52
2023-02-28T08:30:27.268Z,65.40
2023-02-28T08:33:02.866Z,65.06
2023-02-28T08:35:38.470Z,65.22
2023-02-28T08:38:11.406Z,65.29
2023-02-28T08:40:45.112Z,65.53
2023-02-28T08:43:18.406Z,65.13
2023-02-28T08:45:54.042Z,65.00
2023-02-28T08:48:30.909Z,65.20
2023-02-28T08:51:07.796Z,65.00
2023-02-28T08:53:45.170Z,65.14
2023-02-28T08:56:19.219Z,65.17
2023-02-28T08:58:52.753Z,64.97
2023-02-28T09:01:29.004Z,64.93
2023-02-28T09:04:03.682Z,64.76
2023-02-28T09:06:39.782Z,65.13
2023-02-28T09:09:12.951Z,65.05
2023-02-28T09:11:46.156Z,65.03
2023-02-28T09:14:19.643Z,65.11
2023-02-28T09:16:52.886Z,64.95
2023-02-28T09:19:27.460Z,64.79
2023-02-28T09:22:00.565Z,64.63
2023-02-28T09:24:34.036Z,64.73
2023-02-28T09:27:08.206Z,64.71
2023-02-28T09:29:41.817Z,64.48
2023-02-28T09:32:15.473Z,64.51
2023-02-28T09:34:49.997Z,63.94
2023-02-28T09:37:23.625Z,64.44
2023-02-28T09:39:57.094Z,64.49
2023-02-28T09:42:34.829Z,64.41
2023-02-28T09:45:18.375Z,64.38
2023-02-28T09:47:53.970Z,64.12
2023-02-28T09:50:36.054Z,63.87
2023-02-28T09:53:23.825Z,63.56
2023-02-28T09:56:01.746Z,63.63
2023-02-28T09:58:44.022Z,63.54
2023-02-28T10:01:24.217Z,63.83
2023-02-28T10:04:01.738Z,63.25
2023-02-28T10:06:45.371Z,63.56
2023-02-28T10:09:23.758Z,62.92
2023-02-28T10:12:03.373Z,63.76
2023-02-28T10:14:37.659Z,63.26
2023-02-28T10:17:15.326Z,63.62
2023-02-28T10:19:58.458Z,63.84
2023-02-28T10:22:42.304Z,63.91
2023-02-28T10:25:23.439Z,64.46
2023-02-28T10:28:00.262Z,63.95
2023-02-28T10:30:33.600Z,64.34
2023-02-28T10:33:06.775Z,64.07
2023-02-28T10:35:39.681Z,64.25
2023-02-28T10:38:19.179Z,64.12
2023-02-28T10:40:53.341Z,63.95
2023-02-28T10:43:26.800Z,63.17
2023-02-28T10:46:06.008Z,63.20
2023-02-28T10:48:41.595Z,62.89
2023-02-28T10:51:16.336Z,62.08
2023-02-28T10:54:02.699Z,61.37
2023-02-28T10:56:36.152Z,63.26
2023-02-28T10:59:30.468Z,63.12
2023-02-28T11:02:03.756Z,62.68
2023-02-28T11:04:41.424Z,62.48
2023-02-28T11:07:22.234Z,62.15
2023-02-28T11:10:00.038Z,62.24
2023-02-28T11:12:47.246Z,61.08
2023-02-28T11:15:26.915Z,60.52
2023-02-28T11:18:01.303Z,62.50
2023-02-28T11:20:35.442Z,63.49
2023-02-28T11:23:12.953Z,64.92
2023-02-28T11:25:52.127Z,63.29
2023-02-28T11:28:27.499Z,64.54
2023-02-28T11:31:05.322Z,65.14
2023-02-28T11:33:43.466Z,63.37
2023-02-28T11:36:18.932Z,64.67
2023-02-28T11:38:53.333Z,64.98
2023-02-28T11:41:44.594Z,65.21
2023-02-28T11:44:24.383Z,65.01
2023-02-28T11:47:00.066Z,65.11
2023-02-28T11:49:37.134Z,66.09
2023-02-28T11:52:18.913Z,65.40
2023-02-28T11:55:00.483Z,64.54
2023-02-28T11:57:41.070Z,65.34
2023-02-28T12:00:21.593Z,61.13
2023-02-28T12:03:00.278Z,62.60
2023-02-28T12:05:36.295Z,63.51
2023-02-28T12:08:18.278Z,63.94
2023-02-28T12:10:58.554Z,65.22
2023-02-28T12:13:37.808Z,61.20
2023-02-28T12:16:20.598Z,64.68
2023-02-28T12:19:01.968Z,64.05
2023-02-28T12:21:41.746Z,64.57
2023-02-28T12:24:33.524Z,66.13
2023-02-28T12:27:10.436Z,64.73
2023-02-28T12:29:48.050Z,64.48
2023-02-28T12:32:22.788Z,66.08
2023-02-28T12:34:59.085Z,67.61
2023-02-28T12:37:34.005Z,65.09
2023-02-28T12:40:11.726Z,63.92
2023-02-28T12:42:47.272Z,65.83
2023-02-28T12:45:23.096Z,66.71
2023-02-28T12:47:59.582Z,62.70
2023-02-28T12:50:32.831Z,64.51
2023-02-28T12:53:09.159Z,63.14
2023-02-28T12:55:45.141Z,64.17
2023-02-28T12:58:23.087Z,65.75
2023-02-28T13:01:09.078Z,63.37
2023-02-28T13:03:50.522Z,62.68
2023-02-28T13:06:41.902Z,64.01
2023-02-28T13:09:16.663Z,64.58
2023-02-28T13:11:50.297Z,66.84
2023-02-28T13:14:25.721Z,67.42
2023-02-28T13:17:01.468Z,67.68
2023-02-28T13:19:35.583Z,63.99
2023-02-28T13:22:18.431Z,62.42
2023-02-28T13:24:52.420Z,63.64
2023-02-28T13:27:36.478Z,64.45
2023-02-28T13:30:27.606Z,64.15
2023-02-28T13:33:15.169Z,67.38
2023-02-28T13:35:49.756Z,65.88
2023-02-28T13:38:36.962Z,63.40
2023-02-28T13:41:30.117Z,64.37
2023-02-28T13:44:04.155Z,64.95
2023-02-28T13:46:38.616Z,66.16
2023-02-28T13:49:20.908Z,66.35
2023-02-28T13:51:56.871Z,65.32
2023-02-28T13:54:34.417Z,64.16
2023-02-28T13:57:14.054Z,66.48
2023-02-28T13:59:52.784Z,66.95
2023-02-28T14:02:38.425Z,62.48
2023-02-28T14:07:56.251Z,66.64
2023-02-28T14:10:31.184Z,66.11
2023-02-28T14:13:05.332Z,66.06
2023-02-28T14:15:47.059Z,65.74
2023-02-28T14:18:24.233Z,65.85
2023-02-28T14:21:04.400Z,66.46
2023-02-28T14:23:47.004Z,65.97
2023-02-28T14:26:31.545Z,66.67
2023-02-28T14:29:18.471Z,67.40
2023-02-28T14:31:55.700Z,67.49
2023-02-28T14:34:36.395Z,66.76
2023-02-28T14:37:15.557Z,65.63
2023-02-28T14:39:50.567Z,66.38
2023-02-28T14:42:33.394Z,66.98
2023-02-28T14:45:07.132Z,66.14
2023-02-28T14:47:39.821Z,66.26
2023-02-28T14:50:21.099Z,67.06
2023-02-28T14:52:54.474Z,66.50
2023-02-28T14:55:30.247Z,66.40
2023-02-28T14:58:05.180Z,66.73
2023-02-28T15:00:38.808Z,67.34
2023-02-28T15:03:20.324Z,66.49
2023-02-28T15:05:54.636Z,67.71
2023-02-28T15:08:30.217Z,67.51
2023-02-28T15:11:06.346Z,67.28
2023-02-28T15:13:40.927Z,67.41
2023-02-28T15:16:14.845Z,66.95
2023-02-28T15:18:50.223Z,66.46
2023-02-28T15:21:23.794Z,67.05
2023-02-28T15:23:58.101Z,67.85
2023-02-28T15:26:34.882Z,66.74
2023-02-28T15:29:08.755Z,66.79
2023-02-28T15:31:56.383Z,62.72
2023-02-28T15:34:40.622Z,66.40
2023-02-28T15:37:29.663Z,66.82
2023-02-28T15:40:07.083Z,67.19
2023-02-28T15:42:41.188Z,67.78
2023-02-28T15:45:30.086Z,67.35
2023-02-28T15:48:13.611Z,65.90
2023-02-28T15:50:46.898Z,63.40
2023-02-28T15:53:21.528Z,65.87
2023-02-28T15:55:56.360Z,64.28
2023-02-28T15:58:30.810Z,66.38
2023-02-28T16:01:07.593Z,65.95
2023-02-28T16:03:45.648Z,65.86
2023-02-28T16:06:32.809Z,62.96
2023-02-28T16:09:08.951Z,64.50
2023-02-28T16:11:44.084Z,63.59
2023-02-28T16:14:19.676Z,65.79
2023-02-28T16:16:53.968Z,66.98
2023-02-28T16:19:26.861Z,65.80
2023-02-28T16:21:59.616Z,66.26
2023-02-28T16:24:32.373Z,65.25
2023-02-28T16:27:05.091Z,66.35
2023-02-28T16:29:39.607Z,65.68
2023-02-28T16:32:13.108Z,67.36
2023-02-28T16:34:46.222Z,66.45
2023-02-28T16:37:20.850Z,66.79
2023-02-28T16:39:53.600Z,65.80
2023-02-28T16:42:28.403Z,67.01
2023-02-28T16:45:02.835Z,67.36
2023-02-28T16:47:35.493Z,67.78
2023-02-28T16:50:11.690Z,67.63
2023-02-28T16:52:44.982Z,66.96
2023-02-28T16:55:17.980Z,67.29
2023-02-28T16:57:53.486Z,67.35
2023-02-28T17:00:28.609Z,67.96
2023-02-28T17:03:04.185Z,67.52
2023-02-28T17:05:40.974Z,67.68
2023-02-28T17:08:13.670Z,67.60
2023-02-28T17:10:46.802Z,67.86
2023-02-28T17:13:19.468Z,68.49
2023-02-28T17:15:53.792Z,67.96
2023-02-28T17:18:27.695Z,67.66
2023-02-28T17:21:00.393Z,67.32
2023-02-28T17:23:33.104Z,66.90
2023-02-28T17:26:07.588Z,66.99
2023-02-28T17:28:40.297Z,67.49
2023-02-28T17:31:15.008Z,67.92
2023-02-28T17:33:47.721Z,67.58
2023-02-28T17:36:24.232Z,67.38
2023-02-28T17:38:57.124Z,67.26
2023-02-28T17:41:31.902Z,67.24
2023-02-28T17:44:04.666Z,67.09
2023-02-28T17:46:39.169Z,67.76
2023-02-28T17:49:12.119Z,66.44
2023-02-28T17:51:45.011Z,66.46
2023-02-28T17:54:19.135Z,67.00
2023-02-28T17:56:51.955Z,67.38
2023-02-28T17:59:24.703Z,66.43
2023-02-28T18:01:58.813Z,66.72
2023-02-28T18:04:31.560Z,65.80
2023-02-28T18:07:04.404Z,66.49
2023-02-28T18:09:37.117Z,66.41
2023-02-28T18:12:10.208Z,66.36
2023-02-28T18:14:43.436Z,66.65
2023-02-28T18:17:18.230Z,66.33
2023-02-28T18:19:50.911Z,66.66
2023-02-28T18:22:23.599Z,66.29
2023-02-28T18:24:56.611Z,66.15
2023-02-28T18:27:29.402Z,66.61
2023-02-28T18:30:03.167Z,67.47
2023-02-28T18:32:37.246Z,67.10
2023-02-28T18:35:10.358Z,67.24
2023-02-28T18:37:43.057Z,67.49
2023-02-28T18:40:16.004Z,67.19
2023-02-28T18:42:48.701Z,66.92
2023-02-28T18:45:21.381Z,66.65
2023-02-28T18:47:55.583Z,67.04
2023-02-28T18:50:28.265Z,67.23
2023-02-28T18:53:03.372Z,67.46
2023-02-28T18:55:36.116Z,67.25
2023-02-28T18:58:08.930Z,67.12
2023-02-28T19:00:41.726Z,66.99
2023-02-28T19:03:15.817Z,67.35
2023-02-28T19:05:50.137Z,66.84
2023-02-28T19:08:23.764Z,67.02
2023-02-28T19:10:56.518Z,67.03
2023-02-28T19:13:29.392Z,66.28
2023-02-28T19:16:02.785Z,66.74
2023-02-28T19:18:37.386Z,66.54
2023-02-28T19:21:10.616Z,66.52
2023-02-28T19:23:43.477Z,66.37
2023-02-28T19:26:17.712Z,66.70
2023-02-28T19:28:50.463Z,66.90
2023-02-28T19:31:24.647Z,66.88
2023-02-28T19:33:59.198Z,67.25
2023-02-28T19:36:31.891Z,67.64
2023-02-28T19:39:04.658Z,67.99
2023-02-28T19:41:37.299Z,67.47
2023-02-28T19:44:10.034Z,68.06
2023-02-28T19:46:42.739Z,68.07
2023-02-28T19:49:18.626Z,68.45
2023-02-28T19:51:51.272Z,68.32
2023-02-28T19:54:24.684Z,67.82
2023-02-28T19:56:58.405Z,68.01
2023-02-28T19:59:38.714Z,67.73
2023-02-28T20:02:14.853Z,67.99
2023-02-28T20:04:49.630Z,68.37
2023-02-28T20:07:22.327Z,68.44
2023-02-28T20:09:55.260Z,68.54
2023-02-28T20:12:27.961Z,68.65
2023-02-28T20:15:00.948Z,68.55
2023-02-28T20:17:33.631Z,68.51
2023-02-28T20:20:11.573Z,68.48
2023-02-28T20:22:44.213Z,68.01
2023-02-28T20:25:17.076Z,67.91
2023-02-28T20:27:50.944Z,67.99
2023-02-28T20:30:24.165Z,67.74
2023-02-28T20:32:56.931Z,67.36
2023-02-28T20:35:31.050Z,67.36
2023-02-28T20:38:03.853Z,67.54
2023-02-28T20:40:36.567Z,66.83
2023-02-28T20:43:09.246Z,66.55
2023-02-28T20:45:41.926Z,66.40
2023-02-28T20:48:14.908Z,66.50
2023-02-28T20:50:51.185Z,66.59
2023-02-28T20:53:25.170Z,66.44
2023-02-28T20:55:58.684Z,66.77
2023-02-28T20:58:32.487Z,66.60
2023-02-28T21:01:12.700Z,66.57
2023-02-28T21:03:46.143Z,67.04
2023-02-28T21:06:21.700Z,66.62
2023-02-28T21:08:54.352Z,66.96
2023-02-28T21:11:28.496Z,66.76
2023-02-28T21:14:01.816Z,66.94
2023-02-28T21:16:37.461Z,67.13
2023-02-28T21:19:10.919Z,67.33
2023-02-28T21:21:45.693Z,67.44
2023-02-28T21:24:19.368Z,67.42
2023-02-28T21:26:53.253Z,67.52
2023-02-28T21:29:30.337Z,67.69
2023-02-28T21:32:03.224Z,67.82
2023-02-28T21:34:35.951Z,68.12
2023-02-28T21:37:10.013Z,68.43
2023-02-28T21:39:42.729Z,68.33
2023-02-28T21:42:15.386Z,68.75
2023-02-28T21:44:48.099Z,68.85
2023-02-28T21:47:20.834Z,69.31
2023-02-28T21:49:53.535Z,69.30
2023-02-28T21:52:27.632Z,69.30
2023-02-28T21:55:00.263Z,69.79
2023-02-28T21:57:36.027Z,69.79
2023-02-28T22:00:12.188Z,70.17
2023-02-28T22:02:44.831Z,70.04
2023-02-28T22:05:17.555Z,69.92
2023-02-28T22:07:51.615Z,70.07
2023-02-28T22:10:24.978Z,70.07
2023-02-28T22:13:01.940Z,70.01
2023-02-28T22:15:37.119Z,70.28
2023-02-28T22:18:09.811Z,70.34
2023-02-28T22:20:42.852Z,70.46
2023-02-28T22:23:16.884Z,70.59
2023-02-28T22:25:49.646Z,70.48
2023-02-28T22:28:22.333Z,70.58
2023-02-28T22:30:55.083Z,70.77
2023-02-28T22:33:28.364Z,70.48
2023-02-28T22:36:06.024Z,70.47
2023-02-28T22:38:40.478Z,70.53
2023-02-28T22:41:13.702Z,70.67
2023-02-28T22:43:47.898Z,70.65
2023-02-28T22:46:20.576Z,70.57
2023-02-28T22:48:53.915Z,70.49
2023-02-28T22:51:27.143Z,70.37
2023-02-28T22:54:02.094Z,70.36
2023-02-28T22:56:34.887Z,70.29
2023-02-28T22:59:07.894Z,70.50
2023-02-28T23:01:40.840Z,70.39
2023-02-28T23:04:13.850Z,70.40
2023-02-28T23:06:46.539Z,70.30
2023-02-28T23:09:21.667Z,70.21
2023-02-28T23:11:54.420Z,70.40
2023-02-28T23:14:27.164Z,70.17
2023-02-28T23:16:59.871Z,70.28
2023-02-28T23:19:32.721Z,70.28
2023-02-28T23:22:07.113Z,70.40
2023-02-28T23:24:41.254Z,70.53
2023-02-28T23:27:13.969Z,70.29
2023-02-28T23:29:46.701Z,69.94
2023-02-28T23:32:38.596Z,69.99
2023-02-28T23:35:12.231Z,70.09
2023-02-28T23:37:45.302Z,70.00
2023-02-28T23:40:19.788Z,69.97
2023-02-28T23:42:52.518Z,69.85
2023-02-28T23:45:25.569Z,70.13
2023-02-28T23:47:58.677Z,70.11
2023-02-28T23:50:31.352Z,70.20
2023-02-28T23:53:04.278Z,70.19
2023-02-28T23:55:38.387Z,70.08
2023-02-28T23:58:11.073Z,70.11
